Time;durP1;ratioP1;P1;durP2;ratioP2;P2;SDS_P1;SDS_P2;PMS_P1;PMS_P2;Temp;Humidity;BMP_temperature;BMP_pressure;BME280_temperature;BME280_humidity;BME280_pressure;Samples;Min_cycle;Max_cycle;Signal;HPM_P1;HPM_P2
2023/11/27 00:00:39;;;;;;;;;;;;;;;;;;5032349;28;19944;-44
2023/11/27 00:03:05;;;;;;;;;;;;;;;;;;5036353;28;19917;-44
2023/11/27 00:05:31;;;;;;;;;;;;;;;;;;5049183;28;19912;-44
2023/11/27 00:07:57;;;;;;;;;;;;;;;;;;5033250;28;19909;-44
2023/11/27 00:10:23;;;;;;;;;;;;;;;;;;5035777;28;19970;-44
2023/11/27 00:12:49;;;;;;;;;;;;;;;;;;5033485;28;19931;-44
2023/11/27 00:15:15;;;;;;;;;;;;;;;;;;5046044;28;19916;-44
2023/11/27 00:17:41;;;;;;;;;;;;;;;;;;5031253;28;19971;-45
2023/11/27 00:20:09;;;;;;;;;;;;;;;;;;5035775;28;19935;-46
2023/11/27 00:22:35;;;;;;;;;;;;;;;;;;5049932;28;19909;-44
2023/11/27 00:25:01;;;;;;;;;;;;;;;;;;5049453;28;19908;-44
2023/11/27 00:27:27;;;;;;;;;;;;;;;;;;5053303;28;20011;-44
2023/11/27 00:29:53;;;;;;;;;;;;;;;;;;5033776;28;19943;-44
2023/11/27 00:32:19;;;;;;;;;;;;;;;;;;5062437;22;19921;-49
2023/11/27 00:34:46;;;;;;;;;;;;;;;;;;5013249;28;19913;-50
2023/11/27 00:37:12;;;;;;;;;;;;;;;;;;4995689;28;19913;-51
2023/11/27 00:39:38;;;;;;;;;;;;;;;;;;5017944;28;20287;-51
2023/11/27 00:42:04;;;;;;;;;;;;;;;;;;5013137;28;19917;-54
2023/11/27 00:44:30;;;;;;;;;;;;;;;;;;4995377;28;20416;-54
2023/11/27 00:46:56;;;;;;;;;;;;;;;;;;5013378;28;20487;-50
2023/11/27 00:49:22;;;;;;;;;;;;;;;;;;5012944;28;20387;-56
2023/11/27 00:51:48;;;;;;;;;;;;;;;;;;5011315;28;20394;-54
2023/11/27 00:54:14;;;;;;;;;;;;;;;;;;5008258;28;19917;-55
2023/11/27 00:56:40;;;;;;;;;;;;;;;;;;5027780;28;19921;-52
2023/11/27 00:59:07;;;;;;;;;;;;;;;;;;5028042;28;19972;-57
2023/11/27 01:01:33;;;;;;;;;;;;;;;;;;5012393;28;19971;-53
2023/11/27 01:03:59;;;;;;;;;;;;;;;;;;5011390;28;20016;-54
2023/11/27 01:06:25;;;;;;;;;;;;;;;;;;5012803;28;19992;-52
2023/11/27 01:08:51;;;;;;;;;;;;;;;;;;5012514;28;20324;-52
2023/11/27 01:11:17;;;;;;;;;;;;;;;;;;5012696;28;19936;-55
2023/11/27 01:13:44;;;;;;;;;;;;;;;;;;5012922;28;19906;-50
2023/11/27 01:16:10;;;;;;;;;;;;;;;;;;5015103;28;19917;-53
2023/11/27 01:18:36;;;;;;;;;;;;;;;;;;5013276;28;19936;-51
2023/11/27 01:21:02;;;;;;;;;;;;;;;;;;5012105;28;20000;-55
2023/11/27 01:23:28;;;;;;;;;;;;;;;;;;5010961;28;19920;-51
2023/11/27 01:25:54;;;;;;;;;;;;;;;;;;5012511;28;19917;-50
2023/11/27 01:28:20;;;;;;;;;;;;;;;;;;5012661;28;19909;-53
2023/11/27 01:30:46;;;;;;;;;;;;;;;;;;5012211;28;20331;-53
2023/11/27 01:33:14;;;;;;;;;;;;;;;;;;5020798;28;19917;-55
2023/11/27 01:35:41;;;;;;;;;;;;;;;;;;5045629;28;19920;-51
2023/11/27 01:38:07;;;;;;;;;;;;;;;;;;5031884;28;20066;-51
2023/11/27 01:40:33;;;;;;;;;;;;;;;;;;5045783;28;19955;-54
2023/11/27 01:42:59;;;;;;;;;;;;;;;;;;5031786;28;19913;-54
2023/11/27 01:45:25;;;;;;;;;;;;;;;;;;5030563;28;19940;-55
2023/11/27 01:47:51;;;;;;;;;;;;;;;;;;5022150;28;20379;-57
2023/11/27 01:50:17;;;;;;;;;;;;;;;;;;5031860;28;19913;-55
2023/11/27 01:52:44;;;;;;;;;;;;;;;;;;5043268;28;19917;-55
2023/11/27 01:55:11;;;;;;;;;;;;;;;;;;5030517;28;20294;-54
2023/11/27 01:57:37;;;;;;;;;;;;;;;;;;5031736;28;20517;-53
2023/11/27 02:00:04;;;;;;;;;;;;;;;;;;5030645;28;20366;-54
2023/11/27 02:02:39;;;;;;;;;;;;;;;;;;5027022;28;19909;-52
2023/11/27 02:05:05;;;;;;;;;;;;;;;;;;5035344;28;20371;-52
2023/11/27 02:07:31;;;;;;;;;;;;;;;;;;5030580;28;19916;-55
2023/11/27 02:09:57;;;;;;;;;;;;;;;;;;5047293;28;19909;-52
2023/11/27 02:12:23;;;;;;;;;;;;;;;;;;5031567;28;19947;-55
2023/11/27 02:14:52;;;;;;;;;;;;;;;;;;5047192;28;20254;-56
2023/11/27 02:17:18;;;;;;;;;;;;;;;;;;5047093;28;20007;-58
2023/11/27 02:19:44;;;;;;;;;;;;;;;;;;5047118;28;19916;-55
2023/11/27 02:22:10;;;;;;;;;;;;;;;;;;5030269;28;20331;-56
2023/11/27 02:24:36;;;;;;;;;;;;;;;;;;5030463;28;19920;-56
2023/11/27 02:27:02;;;;;;;;;;;;;;;;;;5030353;28;19996;-56
2023/11/27 02:29:28;;;;;;;;;;;;;;;;;;5030515;28;19909;-57
2023/11/27 02:31:55;;;;;;;;;;;;;;;;;;5030036;28;19913;-52
2023/11/27 02:34:21;;;;;;;;;;;;;;;;;;5031706;28;19909;-54
2023/11/27 02:36:47;;;;;;;;;;;;;;;;;;5030432;28;20004;-54
2023/11/27 02:39:14;;;;;;;;;;;;;;;;;;5031794;28;20082;-55
2023/11/27 02:41:40;;;;;;;;;;;;;;;;;;5031383;28;19916;-58
2023/11/27 02:44:07;;;;;;;;;;;;;;;;;;5031513;28;20011;-57
2023/11/27 02:46:33;;;;;;;;;;;;;;;;;;5016186;28;19909;-59
2023/11/27 02:48:59;;;;;;;;;;;;;;;;;;5035325;28;19909;-55
2023/11/27 02:51:26;;;;;;;;;;;;;;;;;;5033795;28;19913;-55
2023/11/27 02:53:52;;;;;;;;;;;;;;;;;;5035192;28;19916;-51
2023/11/27 02:56:18;;;;;;;;;;;;;;;;;;5035122;28;19909;-55
2023/11/27 02:58:44;;;;;;;;;;;;;;;;;;5050422;28;19959;-52
2023/11/27 03:01:10;;;;;;;;;;;;;;;;;;5034761;28;19909;-53
2023/11/27 03:03:37;;;;;;;;;;;;;;;;;;5035055;28;19912;-50
2023/11/27 03:06:03;;;;;;;;;;;;;;;;;;5034805;28;19916;-53
2023/11/27 03:08:29;;;;;;;;;;;;;;;;;;5034650;28;19909;-55
2023/11/27 03:10:56;;;;;;;;;;;;;;;;;;5027329;28;20398;-56
2023/11/27 03:13:23;;;;;;;;;;;;;;;;;;5034815;28;19916;-55
2023/11/27 03:15:49;;;;;;;;;;;;;;;;;;5034787;28;19909;-50
2023/11/27 03:18:15;;;;;;;;;;;;;;;;;;5033573;28;19964;-52
2023/11/27 03:20:41;;;;;;;;;;;;;;;;;;5033486;28;19909;-52
2023/11/27 03:23:07;;;;;;;;;;;;;;;;;;5033248;28;20085;-52
2023/11/27 03:25:33;;;;;;;;;;;;;;;;;;5033210;28;19915;-52
2023/11/27 03:28:00;;;;;;;;;;;;;;;;;;5033433;28;19909;-55
2023/11/27 03:30:26;;;;;;;;;;;;;;;;;;5016530;28;19962;-56
2023/11/27 03:32:52;;;;;;;;;;;;;;;;;;5049580;28;19967;-54
2023/11/27 03:35:18;;;;;;;;;;;;;;;;;;5049973;28;19909;-55
2023/11/27 03:37:44;;;;;;;;;;;;;;;;;;5049719;28;19909;-50
2023/11/27 03:40:10;;;;;;;;;;;;;;;;;;5034426;28;20318;-51
2023/11/27 03:42:36;;;;;;;;;;;;;;;;;;5049246;28;20333;-51
2023/11/27 03:45:02;;;;;;;;;;;;;;;;;;5034250;28;19917;-52
2023/11/27 03:47:29;;;;;;;;;;;;;;;;;;5034392;28;19909;-52
2023/11/27 03:49:55;;;;;;;;;;;;;;;;;;5049472;28;19909;-52
2023/11/27 03:52:22;;;;;;;;;;;;;;;;;;5045311;28;19913;-56
2023/11/27 03:54:49;;;;;;;;;;;;;;;;;;5033861;28;19909;-52
2023/11/27 03:57:15;;;;;;;;;;;;;;;;;;5030528;28;19909;-54
2023/11/27 03:59:41;;;;;;;;;;;;;;;;;;5032738;28;20080;-53
2023/11/27 04:02:10;;;;;;;;;;;;;;;;;;5014278;28;19963;-55
2023/11/27 04:04:37;;;;;;;;;;;;;;;;;;5029842;28;19913;-52
2023/11/27 04:07:03;;;;;;;;;;;;;;;;;;5033550;28;20350;-57
2023/11/27 04:09:29;;;;;;;;;;;;;;;;;;5032822;28;19959;-53
2023/11/27 04:11:55;;;;;;;;;;;;;;;;;;5033042;28;19909;-57
2023/11/27 04:14:21;;;;;;;;;;;;;;;;;;5033480;28;19916;-56
2023/11/27 04:16:47;;;;;;;;;;;;;;;;;;5016116;28;19909;-54
2023/11/27 04:19:14;;;;;;;;;;;;;;;;;;5041501;28;20358;-58
2023/11/27 04:21:40;;;;;;;;;;;;;;;;;;5015585;28;19967;-56
2023/11/27 04:24:06;;;;;;;;;;;;;;;;;;5033281;28;19968;-52
2023/11/27 04:26:32;;;;;;;;;;;;;;;;;;5033658;28;20286;-54
2023/11/27 04:28:59;;;;;;;;;;;;;;;;;;5033525;28;20006;-52
2023/11/27 04:31:25;;;;;;;;;;;;;;;;;;5037365;28;19919;-59
2023/11/27 04:33:51;;;;;;;;;;;;;;;;;;5040286;28;19963;-59
2023/11/27 04:36:21;;;;;;;;;;;;;;;;;;5034491;28;19971;-59
2023/11/27 04:38:48;;;;;;;;;;;;;;;;;;5034893;28;19913;-59
2023/11/27 04:41:14;;;;;;;;;;;;;;;;;;5032980;28;19963;-55
2023/11/27 04:43:40;;;;;;;;;;;;;;;;;;5033148;28;20338;-54
2023/11/27 04:46:07;;;;;;;;;;;;;;;;;;5046870;28;20343;-52
2023/11/27 04:48:33;;;;;;;;;;;;;;;;;;5051669;28;19948;-56
2023/11/27 04:50:59;;;;;;;;;;;;;;;;;;5039811;28;20260;-51
2023/11/27 04:53:25;;;;;;;;;;;;;;;;;;5040961;28;19913;-48
2023/11/27 04:55:51;;;;;;;;;;;;;;;;;;5035628;28;19959;-52
2023/11/27 04:58:18;;;;;;;;;;;;;;;;;;5052802;28;19913;-54
2023/11/27 05:00:44;;;;;;;;;;;;;;;;;;5034693;28;19909;-51
2023/11/27 05:03:10;;;;;;;;;;;;;;;;;;5034754;28;20389;-55
2023/11/27 05:05:36;;;;;;;;;;;;;;;;;;5053083;28;20259;-59
2023/11/27 05:08:02;;;;;;;;;;;;;;;;;;5047402;28;19953;-54
2023/11/27 05:10:28;;;;;;;;;;;;;;;;;;5031872;28;19912;-56
2023/11/27 05:12:54;;;;;;;;;;;;;;;;;;5032641;28;20284;-52
2023/11/27 05:15:21;;;;;;;;;;;;;;;;;;5014885;28;19995;-55
2023/11/27 05:17:47;;;;;;;;;;;;;;;;;;5032200;28;19909;-54
2023/11/27 05:20:13;;;;;;;;;;;;;;;;;;5032532;28;19924;-56
2023/11/27 05:22:39;;;;;;;;;;;;;;;;;;5031665;28;20007;-57
2023/11/27 05:25:05;;;;;;;;;;;;;;;;;;5032517;28;19913;-55
2023/11/27 05:27:31;;;;;;;;;;;;;;;;;;5032067;28;19915;-58
2023/11/27 05:29:57;;;;;;;;;;;;;;;;;;5032407;28;19909;-56
2023/11/27 05:32:24;;;;;;;;;;;;;;;;;;5010561;28;20053;-56
2023/11/27 05:34:50;;;;;;;;;;;;;;;;;;5012649;28;19909;-54
2023/11/27 05:37:16;;;;;;;;;;;;;;;;;;5012271;28;20326;-57
2023/11/27 05:39:42;;;;;;;;;;;;;;;;;;5012343;28;19956;-54
2023/11/27 05:42:11;;;;;;;;;;;;;;;;;;5012038;28;19914;-56
2023/11/27 05:44:37;;;;;;;;;;;;;;;;;;5012401;28;19913;-54
2023/11/27 05:47:04;;;;;;;;;;;;;;;;;;5010984;28;19964;-51
2023/11/27 05:49:33;;;;;;;;;;;;;;;;;;5012533;28;19996;-55
2023/11/27 05:51:59;;;;;;;;;;;;;;;;;;5012002;28;19996;-53
2023/11/27 05:54:26;;;;;;;;;;;;;;;;;;5011200;28;19963;-50
2023/11/27 05:56:52;;;;;;;;;;;;;;;;;;5012057;28;19909;-57
2023/11/27 05:59:19;;;;;;;;;;;;;;;;;;5012092;28;20000;-54
2023/11/27 06:01:45;;;;;;;;;;;;;;;;;;5012066;28;19909;-55
2023/11/27 06:04:11;;;;;;;;;;;;;;;;;;5010557;28;20012;-53
2023/11/27 06:06:37;;;;;;;;;;;;;;;;;;5011095;28;20356;-51
2023/11/27 06:09:04;;;;;;;;;;;;;;;;;;5011845;28;19909;-55
2023/11/27 06:11:30;;;;;;;;;;;;;;;;;;5010735;28;20364;-54
2023/11/27 06:13:56;;;;;;;;;;;;;;;;;;5011772;28;19909;-56
2023/11/27 06:16:25;;;;;;;;;;;;;;;;;;5012196;28;19910;-55
2023/11/27 06:18:51;;;;;;;;;;;;;;;;;;5011769;28;20002;-54
2023/11/27 06:21:17;;;;;;;;;;;;;;;;;;5013887;28;19917;-56
2023/11/27 06:23:43;;;;;;;;;;;;;;;;;;5015470;28;19914;-57
2023/11/27 06:26:12;;;;;;;;;;;;;;;;;;5015950;28;19909;-57
2023/11/27 06:28:38;;;;;;;;;;;;;;;;;;5015568;28;19941;-56
2023/11/27 06:31:04;;;;;;;;;;;;;;;;;;5017144;28;19916;-51
2023/11/27 06:33:30;;;;;;;;;;;;;;;;;;5035676;28;19920;-53
2023/11/27 06:35:56;;;;;;;;;;;;;;;;;;5035499;28;19995;-56
2023/11/27 06:38:23;;;;;;;;;;;;;;;;;;5035126;28;20617;-53
2023/11/27 06:40:49;;;;;;;;;;;;;;;;;;5035280;28;19911;-54
2023/11/27 06:43:15;;;;;;;;;;;;;;;;;;5034984;28;19944;-59
2023/11/27 06:45:41;;;;;;;;;;;;;;;;;;5035558;28;19939;-54
2023/11/27 06:48:08;;;;;;;;;;;;;;;;;;5034932;28;19908;-58
2023/11/27 06:50:34;;;;;;;;;;;;;;;;;;5035198;28;19917;-55
2023/11/27 06:53:00;;;;;;;;;;;;;;;;;;5034632;28;19916;-52
2023/11/27 06:55:27;;;;;;;;;;;;;;;;;;5035223;28;20367;-52
2023/11/27 06:57:53;;;;;;;;;;;;;;;;;;5034900;28;19913;-52
2023/11/27 07:00:19;;;;;;;;;;;;;;;;;;5017342;28;19973;-57
2023/11/27 07:02:46;;;;;;;;;;;;;;;;;;5034346;28;19916;-55
2023/11/27 07:05:12;;;;;;;;;;;;;;;;;;5017276;28;20039;-55
2023/11/27 07:07:38;;;;;;;;;;;;;;;;;;5034644;28;19913;-53
2023/11/27 07:10:04;;;;;;;;;;;;;;;;;;5033295;28;19905;-55
2023/11/27 07:12:31;;;;;;;;;;;;;;;;;;5000256;28;19995;-56
2023/11/27 07:14:58;;;;;;;;;;;;;;;;;;5034956;28;19920;-48
2023/11/27 07:17:24;;;;;;;;;;;;;;;;;;5034850;28;19905;-50
2023/11/27 07:19:50;;;;;;;;;;;;;;;;;;5034862;28;19985;-47
2023/11/27 07:22:16;;;;;;;;;;;;;;;;;;5034318;28;20364;-49
2023/11/27 07:24:42;;;;;;;;;;;;;;;;;;5034636;28;19956;-47
2023/11/27 07:27:08;;;;;;;;;;;;;;;;;;5034325;28;19948;-48
2023/11/27 07:29:34;;;;;;;;;;;;;;;;;;5016964;28;19916;-47
2023/11/27 07:32:00;;;;;;;;;;;;;;;;;;5033292;28;19981;-48
2023/11/27 07:34:27;;;;;;;;;;;;;;;;;;5034647;28;19912;-46
2023/11/27 07:36:53;;;;;;;;;;;;;;;;;;5034428;28;19909;-46
2023/11/27 07:39:19;;;;;;;;;;;;;;;;;;5034307;28;20447;-46
2023/11/27 07:41:45;;;;;;;;;;;;;;;;;;5034186;28;19916;-53
2023/11/27 07:44:15;;;;;;;;;;;;;;;;;;5034002;28;19909;-51
2023/11/27 07:46:41;;;;;;;;;;;;;;;;;;5034364;28;19959;-50
2023/11/27 07:49:08;;;;;;;;;;;;;;;;;;5016043;28;19924;-51
2023/11/27 07:51:34;;;;;;;;;;;;;;;;;;5034030;28;19916;-56
2023/11/27 07:54:01;;;;;;;;;;;;;;;;;;4999603;28;19912;-50
2023/11/27 07:56:32;;;;;;;;;;;;;;;;;;5016492;28;19944;-53
2023/11/27 07:58:58;;;;;;;;;;;;;;;;;;5015901;28;19956;-53
2023/11/27 08:01:25;;;;;;;;;;;;;;;;;;5016087;28;19916;-54
2023/11/27 08:03:51;;;;;;;;;;;;;;;;;;4999402;28;20346;-52
2023/11/27 08:06:17;;;;;;;;;;;;;;;;;;5016238;28;20276;-53
2023/11/27 08:08:43;;;;;;;;;;;;;;;;;;5033382;28;19909;-57
2023/11/27 08:11:12;;;;;;;;;;;;;;;;;;5015863;28;19905;-50
2023/11/27 08:13:38;;;;;;;;;;;;;;;;;;5033399;28;19932;-51
2023/11/27 08:16:04;;;;;;;;;;;;;;;;;;5033792;28;19916;-51
2023/11/27 08:18:30;;;;;;;;;;;;;;;;;;5033496;28;19905;-46
2023/11/27 08:20:56;;;;;;;;;;;;;;;;;;5033539;28;20442;-47
2023/11/27 08:23:24;;;;;;;;;;;;;;;;;;5015226;28;19920;-49
2023/11/27 08:25:50;;;;;;;;;;;;;;;;;;5033400;28;20462;-46
2023/11/27 08:28:16;;;;;;;;;;;;;;;;;;5033134;28;19932;-55
2023/11/27 08:30:42;;;;;;;;;;;;;;;;;;5033276;28;19913;-53
2023/11/27 08:33:08;;;;;;;;;;;;;;;;;;5033199;28;20299;-49
2023/11/27 08:35:34;;;;;;;;;;;;;;;;;;5033206;28;19931;-53
2023/11/27 08:38:00;;;;;;;;;;;;;;;;;;5014865;28;20367;-56
2023/11/27 08:40:26;;;;;;;;;;;;;;;;;;5015663;28;19931;-51
2023/11/27 08:42:52;;;;;;;;;;;;;;;;;;4998375;28;19909;-51
2023/11/27 08:45:19;;;;;;;;;;;;;;;;;;5033137;28;19959;-56
2023/11/27 08:47:55;;;;;;;;;;;;;;;;;;5015160;28;19935;-54
2023/11/27 08:50:21;;;;;;;;;;;;;;;;;;5033213;28;19941;-54
2023/11/27 08:52:47;;;;;;;;;;;;;;;;;;5013776;28;19921;-56
2023/11/27 08:55:23;;;;;;;;;;;;;;;;;;5015450;28;20286;-51
2023/11/27 08:57:53;;;;;;;;;;;;;;;;;;5032935;28;19919;-49
2023/11/27 09:00:19;;;;;;;;;;;;;;;;;;5032992;28;20404;-51
2023/11/27 09:02:45;;;;;;;;;;;;;;;;;;5015085;28;20395;-55
2023/11/27 09:05:12;;;;;;;;;;;;;;;;;;5032906;28;19959;-53
2023/11/27 09:07:38;;;;;;;;;;;;;;;;;;5014971;28;20264;-54
2023/11/27 09:10:04;;;;;;;;;;;;;;;;;;5015237;28;19909;-53
2023/11/27 09:12:34;;;;;;;;;;;;;;;;;;5032356;28;19995;-53
2023/11/27 09:15:00;;;;;;;;;;;;;;;;;;5015138;28;19908;-56
2023/11/27 09:17:26;;;;;;;;;;;;;;;;;;5015101;28;19909;-53
2023/11/27 09:19:53;;;;;;;;;;;;;;;;;;5032535;28;19920;-53
2023/11/27 09:22:21;;;;;;;;;;;;;;;;;;5032272;28;19909;-53
2023/11/27 09:24:47;;;;;;;;;;;;;;;;;;5032532;28;20331;-54
2023/11/27 09:27:13;;;;;;;;;;;;;;;;;;5015037;28;19915;-55
2023/11/27 09:29:39;;;;;;;;;;;;;;;;;;5014831;28;19959;-49
2023/11/27 09:32:05;;;;;;;;;;;;;;;;;;5032032;28;19919;-52
2023/11/27 09:34:32;;;;;;;;;;;;;;;;;;5014618;28;19909;-50
2023/11/27 09:36:58;;;;;;;;;;;;;;;;;;5032244;28;20654;-53
2023/11/27 09:39:24;;;;;;;;;;;;;;;;;;5032416;28;19909;-56
2023/11/27 09:41:50;;;;;;;;;;;;;;;;;;5014310;28;20283;-53
2023/11/27 09:44:18;;;;;;;;;;;;;;;;;;5032160;28;20330;-53
2023/11/27 09:46:44;;;;;;;;;;;;;;;;;;5014449;28;20011;-49
2023/11/27 09:49:10;;;;;;;;;;;;;;;;;;5014334;28;19917;-51
2023/11/27 09:51:36;;;;;;;;;;;;;;;;;;5031747;28;19963;-53
2023/11/27 09:54:03;;;;;;;;;;;;;;;;;;5032012;28;20291;-53
2023/11/27 09:56:29;;;;;;;;;;;;;;;;;;5031653;28;20375;-48
2023/11/27 09:58:59;;;;;;;;;;;;;;;;;;5014409;28;20364;-51
2023/11/27 10:01:27;;;;;;;;;;;;;;;;;;5031605;28;19909;-56
2023/11/27 10:03:53;;;;;;;;;;;;;;;;;;5014087;28;19913;-53
2023/11/27 10:06:24;;;;;;;;;;;;;;;;;;5032178;28;19990;-50
2023/11/27 10:08:50;;;;;;;;;;;;;;;;;;5032007;28;19948;-51
2023/11/27 10:11:16;;;;;;;;;;;;;;;;;;5031695;28;19916;-53
2023/11/27 10:13:43;;;;;;;;;;;;;;;;;;5031980;28;19955;-53
2023/11/27 10:16:09;;;;;;;;;;;;;;;;;;5014151;28;19963;-53
2023/11/27 10:18:35;;;;;;;;;;;;;;;;;;5014188;28;19916;-56
2023/11/27 10:21:01;;;;;;;;;;;;;;;;;;5031566;28;19905;-54
2023/11/27 10:23:27;;;;;;;;;;;;;;;;;;5014162;28;19913;-55
2023/11/27 10:25:54;;;;;;;;;;;;;;;;;;5031848;28;19999;-54
2023/11/27 10:28:21;;;;;;;;;;;;;;;;;;5014094;28;19924;-55
2023/11/27 10:30:47;;;;;;;;;;;;;;;;;;5013813;28;19932;-51
2023/11/27 10:33:13;;;;;;;;;;;;;;;;;;5031612;28;19924;-54
2023/11/27 10:35:41;;;;;;;;;;;;;;;;;;5031527;28;19995;-58
2023/11/27 10:38:07;;;;;;;;;;;;;;;;;;5014007;28;19916;-56
2023/11/27 10:40:34;;;;;;;;;;;;;;;;;;5031494;28;20371;-54
2023/11/27 10:43:00;;;;;;;;;;;;;;;;;;5013628;28;19909;-52
2023/11/27 10:45:27;;;;;;;;;;;;;;;;;;5031491;28;19913;-56
2023/11/27 10:47:53;;;;;;;;;;;;;;;;;;5014029;28;19963;-55
2023/11/27 10:50:19;;;;;;;;;;;;;;;;;;5031687;28;19952;-52
2023/11/27 10:52:48;;;;;;;;;;;;;;;;;;5031286;28;19905;-56
2023/11/27 10:55:15;;;;;;;;;;;;;;;;;;5014019;28;19963;-50
2023/11/27 10:57:41;;;;;;;;;;;;;;;;;;5031468;28;20184;-56
2023/11/27 11:00:07;;;;;;;;;;;;;;;;;;5013778;28;19970;-54
2023/11/27 11:02:33;;;;;;;;;;;;;;;;;;5031227;28;19909;-55
2023/11/27 11:05:00;;;;;;;;;;;;;;;;;;5031354;28;19956;-55
2023/11/27 11:07:27;;;;;;;;;;;;;;;;;;5014276;28;19909;-52
2023/11/27 11:09:56;;;;;;;;;;;;;;;;;;5017348;28;20284;-52
2023/11/27 11:12:23;;;;;;;;;;;;;;;;;;5034523;28;19912;-55
2023/11/27 11:14:49;;;;;;;;;;;;;;;;;;5034765;28;20351;-52
2023/11/27 11:17:19;;;;;;;;;;;;;;;;;;5034432;28;19909;-53
2023/11/27 11:19:45;;;;;;;;;;;;;;;;;;5044752;28;20379;-52
2023/11/27 11:22:11;;;;;;;;;;;;;;;;;;5030983;28;20306;-53
2023/11/27 11:24:37;;;;;;;;;;;;;;;;;;5034596;28;19967;-56
2023/11/27 11:27:07;;;;;;;;;;;;;;;;;;5034716;28;19909;-50
2023/11/27 11:29:33;;;;;;;;;;;;;;;;;;5015206;28;19909;-53
2023/11/27 11:32:04;;;;;;;;;;;;;;;;;;4997111;28;19913;-51
2023/11/27 11:34:32;;;;;;;;;;;;;;;;;;5018696;28;19912;-59
2023/11/27 11:36:58;;;;;;;;;;;;;;;;;;5001991;28;19911;-58
2023/11/27 11:39:24;;;;;;;;;;;;;;;;;;5015498;28;20284;-57
2023/11/27 11:41:52;;;;;;;;;;;;;;;;;;5032418;28;19909;-58
2023/11/27 11:44:18;;;;;;;;;;;;;;;;;;5048312;28;19944;-58
2023/11/27 11:46:49;;;;;;;;;;;;;;;;;;5031294;28;19912;-55
2023/11/27 11:49:15;;;;;;;;;;;;;;;;;;5027695;28;19948;-53
2023/11/27 11:51:41;;;;;;;;;;;;;;;;;;5031212;28;19964;-56
2023/11/27 11:54:09;;;;;;;;;;;;;;;;;;5031939;28;19924;-58
2023/11/27 11:56:35;;;;;;;;;;;;;;;;;;5031151;28;19959;-56
2023/11/27 11:59:09;;;;;;;;;;;;;;;;;;5031514;28;20386;-55
2023/11/27 12:01:36;;;;;;;;;;;;;;;;;;5031443;28;19913;-57
2023/11/27 12:04:08;;;;;;;;;;;;;;;;;;5032411;28;19917;-60
2023/11/27 12:06:34;;;;;;;;;;;;;;;;;;5013565;28;19913;-58
2023/11/27 12:09:03;;;;;;;;;;;;;;;;;;5032439;28;19920;-54
2023/11/27 12:11:31;;;;;;;;;;;;;;;;;;5013507;28;19984;-59
2023/11/27 12:13:57;;;;;;;;;;;;;;;;;;5032311;28;20652;-56
2023/11/27 12:16:23;;;;;;;;;;;;;;;;;;5031059;28;20027;-56
2023/11/27 12:18:49;;;;;;;;;;;;;;;;;;5009216;28;19920;-59
2023/11/27 12:21:16;;;;;;;;;;;;;;;;;;5031101;28;19992;-54
2023/11/27 12:23:43;;;;;;;;;;;;;;;;;;5032034;28;19913;-53
2023/11/27 12:26:16;;;;;;;;;;;;;;;;;;5031771;28;19994;-52
2023/11/27 12:28:42;;;;;;;;;;;;;;;;;;5032268;28;19913;-53
2023/11/27 12:31:13;;;;;;;;;;;;;;;;;;5032212;28;19913;-56
2023/11/27 12:33:39;;;;;;;;;;;;;;;;;;5015059;28;19920;-55
2023/11/27 12:36:06;;;;;;;;;;;;;;;;;;5046693;28;19940;-52
2023/11/27 12:38:32;;;;;;;;;;;;;;;;;;5031164;28;19909;-54
2023/11/27 12:41:03;;;;;;;;;;;;;;;;;;5015388;28;19909;-50
2023/11/27 12:43:30;;;;;;;;;;;;;;;;;;5033356;28;19920;-51
2023/11/27 12:45:57;;;;;;;;;;;;;;;;;;5033077;28;19912;-51
2023/11/27 12:48:23;;;;;;;;;;;;;;;;;;5033139;28;20004;-53
2023/11/27 12:50:49;;;;;;;;;;;;;;;;;;5031439;28;19915;-52
2023/11/27 12:53:15;;;;;;;;;;;;;;;;;;5032997;28;19936;-51
2023/11/27 12:55:47;;;;;;;;;;;;;;;;;;5031934;28;19955;-52
2023/11/27 12:58:13;;;;;;;;;;;;;;;;;;5031704;28;19955;-55
2023/11/27 13:00:45;;;;;;;;;;;;;;;;;;5032604;28;19909;-52
2023/11/27 13:03:18;;;;;;;;;;;;;;;;;;4995432;28;19910;-51
2023/11/27 13:05:44;;;;;;;;;;;;;;;;;;5014157;28;19910;-53
2023/11/27 13:08:11;;;;;;;;;;;;;;;;;;5032817;28;19940;-54
2023/11/27 13:10:43;;;;;;;;;;;;;;;;;;5032661;28;19970;-52
2023/11/27 13:13:10;;;;;;;;;;;;;;;;;;5026411;28;20371;-55
2023/11/27 13:15:38;;;;;;;;;;;;;;;;;;5025476;28;20374;-52
2023/11/27 13:18:06;;;;;;;;;;;;;;;;;;5015010;28;19909;-52
2023/11/27 13:20:35;;;;;;;;;;;;;;;;;;5047583;28;20298;-52
2023/11/27 13:23:02;;;;;;;;;;;;;;;;;;5032165;28;20402;-55
2023/11/27 13:25:34;;;;;;;;;;;;;;;;;;5032560;28;19916;-52
2023/11/27 13:28:01;;;;;;;;;;;;;;;;;;5033904;28;19932;-56
2023/11/27 13:30:27;;;;;;;;;;;;;;;;;;5013684;28;19909;-51
2023/11/27 13:32:53;;;;;;;;;;;;;;;;;;5015721;28;19917;-55
2023/11/27 13:35:29;;;;;;;;;;;;;;;;;;5012826;28;19987;-58
2023/11/27 13:38:00;;;;;;;;;;;;;;;;;;5012842;28;19916;-53
2023/11/27 13:40:28;;;;;;;;;;;;;;;;;;5012596;28;19909;-58
2023/11/27 13:42:54;;;;;;;;;;;;;;;;;;4994626;28;20097;-52
2023/11/27 13:45:32;;;;;;;;;;;;;;;;;;5001590;28;20023;-53
2023/11/27 13:47:58;;;;;;;;;;;;;;;;;;4992743;28;19910;-53
2023/11/27 13:50:35;;;;;;;;;;;;;;;;;;4992985;28;20463;-54
2023/11/27 13:53:01;;;;;;;;;;;;;;;;;;4990932;28;19952;-53
2023/11/27 13:55:31;;;;;;;;;;;;;;;;;;4992722;28;20265;-58
2023/11/27 13:57:57;;;;;;;;;;;;;;;;;;4992719;28;20012;-55
2023/11/27 14:00:26;;;;;;;;;;;;;;;;;;4992534;28;19910;-52
2023/11/27 14:02:52;;;;;;;;;;;;;;;;;;4974961;28;19952;-55
2023/11/27 14:05:21;;;;;;;;;;;;;;;;;;4959009;28;19982;-52
2023/11/27 14:07:50;;;;;;;;;;;;;;;;;;4975175;28;19909;-54
2023/11/27 14:10:27;;;;;;;;;;;;;;;;;;4975220;28;19909;-53
2023/11/27 14:12:59;;;;;;;;;;;;;;;;;;4975045;28;20012;-57
2023/11/27 14:15:28;;;;;;;;;;;;;;;;;;4977727;28;19917;-57
2023/11/27 14:18:26;;;;;;;;;;;;;;;;;;5012116;28;19914;-58
2023/11/27 14:20:51;;;;;;;;;;;;;;;;;;5011749;28;19914;-58
2023/11/27 14:23:46;;;;;;;;;;;;;;;;;;4994364;28;20360;-54
2023/11/27 14:26:34;;;;;;;;;;;;;;;;;;4979283;28;19964;-52
2023/11/27 14:29:05;;;;;;;;;;;;;;;;;;4992393;28;19960;-56
2023/11/27 14:31:32;;;;;;;;;;;;;;;;;;5009888;28;20307;-54
2023/11/27 14:33:58;;;;;;;;;;;;;;;;;;5030613;28;20290;-55
2023/11/27 14:36:28;;;;;;;;;;;;;;;;;;5029802;28;20360;-55
2023/11/27 14:38:55;;;;;;;;;;;;;;;;;;5030682;28;20409;-53
2023/11/27 14:41:21;;;;;;;;;;;;;;;;;;5032132;28;19967;-56
2023/11/27 14:43:50;;;;;;;;;;;;;;;;;;5034394;28;19914;-54
2023/11/27 14:46:16;;;;;;;;;;;;;;;;;;5035577;28;19909;-50
2023/11/27 14:48:43;;;;;;;;;;;;;;;;;;5035485;28;19909;-53
2023/11/27 14:51:09;;;;;;;;;;;;;;;;;;5033898;28;19908;-51
2023/11/27 14:53:36;;;;;;;;;;;;;;;;;;5034179;28;19910;-52
2023/11/27 14:56:07;;;;;;;;;;;;;;;;;;5035431;28;19996;-51
2023/11/27 14:58:33;;;;;;;;;;;;;;;;;;5050781;28;20036;-53
2023/11/27 15:01:01;;;;;;;;;;;;;;;;;;5035102;28;19933;-56
2023/11/27 15:03:27;;;;;;;;;;;;;;;;;;5035160;28;19913;-52
2023/11/27 15:05:54;;;;;;;;;;;;;;;;;;5035127;28;19905;-56
2023/11/27 15:08:20;;;;;;;;;;;;;;;;;;5035189;28;19948;-51
2023/11/27 15:10:47;;;;;;;;;;;;;;;;;;5034956;28;19909;-55
2023/11/27 15:13:13;;;;;;;;;;;;;;;;;;5035042;28;19966;-54
2023/11/27 15:15:42;;;;;;;;;;;;;;;;;;5050355;28;20374;-54
2023/11/27 15:18:09;;;;;;;;;;;;;;;;;;5034982;28;19909;-53
2023/11/27 15:20:35;;;;;;;;;;;;;;;;;;5034716;28;19909;-55
2023/11/27 15:23:02;;;;;;;;;;;;;;;;;;5034770;28;20003;-54
2023/11/27 15:25:31;;;;;;;;;;;;;;;;;;5034865;28;19928;-54
2023/11/27 15:27:57;;;;;;;;;;;;;;;;;;5033478;28;19905;-52
2023/11/27 15:30:24;;;;;;;;;;;;;;;;;;5034811;28;19913;-56
2023/11/27 15:32:50;;;;;;;;;;;;;;;;;;5049620;28;19913;-57
2023/11/27 15:35:16;;;;;;;;;;;;;;;;;;5033683;28;19995;-56
2023/11/27 15:37:43;;;;;;;;;;;;;;;;;;5034487;28;19916;-58
2023/11/27 15:40:14;;;;;;;;;;;;;;;;;;5034138;28;20371;-51
2023/11/27 15:42:40;;;;;;;;;;;;;;;;;;5016414;28;19909;-53
2023/11/27 15:45:06;;;;;;;;;;;;;;;;;;5033946;28;19913;-54
2023/11/27 15:47:32;;;;;;;;;;;;;;;;;;5034308;28;19920;-54
2023/11/27 15:49:58;;;;;;;;;;;;;;;;;;5016149;28;20380;-57
2023/11/27 15:52:25;;;;;;;;;;;;;;;;;;5016206;28;20351;-56
2023/11/27 15:54:51;;;;;;;;;;;;;;;;;;5033147;28;20414;-56
2023/11/27 15:57:18;;;;;;;;;;;;;;;;;;5034180;28;20437;-54
2023/11/27 15:59:45;;;;;;;;;;;;;;;;;;5033665;28;19916;-53
2023/11/27 16:02:12;;;;;;;;;;;;;;;;;;5033692;28;20433;-51
2023/11/27 16:04:38;;;;;;;;;;;;;;;;;;5033468;28;20287;-57
2023/11/27 16:07:05;;;;;;;;;;;;;;;;;;5033988;28;19909;-50
2023/11/27 16:09:31;;;;;;;;;;;;;;;;;;5033599;28;19909;-56
2023/11/27 16:11:57;;;;;;;;;;;;;;;;;;5033505;28;19909;-56
2023/11/27 16:14:25;;;;;;;;;;;;;;;;;;5015663;28;20006;-56
2023/11/27 16:16:52;;;;;;;;;;;;;;;;;;5033749;28;20395;-50
2023/11/27 16:19:18;;;;;;;;;;;;;;;;;;5033457;28;19952;-55
2023/11/27 16:21:44;;;;;;;;;;;;;;;;;;5033318;28;19909;-54
2023/11/27 16:24:10;;;;;;;;;;;;;;;;;;5033202;28;19921;-49
2023/11/27 16:26:37;;;;;;;;;;;;;;;;;;5033543;28;19936;-50
2023/11/27 16:29:03;;;;;;;;;;;;;;;;;;5033221;28;19912;-52
2023/11/27 16:31:29;;;;;;;;;;;;;;;;;;5028126;28;20347;-51
2023/11/27 16:33:55;;;;;;;;;;;;;;;;;;5020848;28;19909;-53
2023/11/27 16:36:21;;;;;;;;;;;;;;;;;;4986877;28;19956;-51
2023/11/27 16:38:47;;;;;;;;;;;;;;;;;;5012190;28;19910;-53
2023/11/27 16:41:13;;;;;;;;;;;;;;;;;;5012772;28;20292;-52
2023/11/27 16:43:39;;;;;;;;;;;;;;;;;;5013292;28;19920;-51